Namaqua Flower Springbok

 

SPRINGBOK 

INFO

 
Home
Events
Maps
Articles
Namaqualand
Stargazers
Weather
Features
Accommodation
Pubs
Restaurants
Take-aways
Coffee shops
Businesses
Clubs
Churches
Schools
Nature reserves
Bushwackers
Tour operators
Airstrips
Medical
Emergency numbers
Transport
Facebook Page
Local Government
Links
Contacts
About us

Fish Eagle Productions

 
Airstrips

Last updated on Thursday 27 October 2011

General information

Springbok Airport, located close to Springbok has 1 runway, which is 5213 feet (1589 metres) long. The geographic coordinates of this airport are 29 degrees, 41 minutes, 22 seconds south (-29.689333) and 17 degrees, 56 minutes, 23 seconds east (17.939611). Springbok Airport is 2690 feet (820 m) above sea level.

Springbok Airport, near Springbok, South Africa, is in the time zone UTC+2.

Springbok Airport

Runway Information

Runway 10/28

Dimension: 5213 x 66 ft / 1588.9 x 20.1 m
Surface: Asphalt, asphaltic concrete, tar macadam, or bitumen bound macadam.
 

Runway 10

Runway 28

Longitude: 17.931753 / E 017 55' 54.31" 17.947442 / E 017 56' 50.79"
Latitude: -29.691308 / S 29 41' 28.71" -29.687372 / S 29 41' 14.54"
Alignment: 094.0 274.0

Airport codes

The airport is referred to by the International Air Transport Association (IATA) using the airport code SBU. The International Civil Aviation Organization (ICAO) uses FASB when referring to Springbok Airport.

FASB - Springbok

Information below from meteo-mobile 

Magnetic Variation: W 2028.9' (2008-04)
Coordinates S 2941'21"  E 1756'22"

Wind Statistics for FASB:

This is the BETA Wind Statistics for FASB (SPRINGBOK in SOUTH AFRICA).
Data belongs to the months June to August 2011

Wind Profile

This takes into account both frequency distribution and Average wind intensity
Scale in percentage points compared to maximum

 

Year:2011


2011 Wind statistics for FASB

Chart based on 119 data points

FASB Metars

SPRINGBOK in SOUTH AFRICA
vfrSPECI SPECI FASB 090834Z 03008KT CAVOK 31/M01 Q1019=
vfrMETAR
FASB 090834Z 03008KT CAVOK 31/M01 Q1019=

Flight Rules Statistics for FASB:

In dark blue % of VFR conditions, in light blue % of MVFR, in red % of IFR or LIFR conditions.
In the following charts, each bar represents a one hour period (00:00 UTC top - 24:00 UTC bottom)

2011'10 Flight Conditions:

This month's Flight conditions statistics for FASB

Year:2011

5/2011 (top) to 8/2011 (bottom)
2011 Flight Rules statistics for FASB

Remarks

Fuel - Opr 0530-1500Z Mon-Fri, OT PN . (NC-100LL, A1)
Operating Hours - Opr SR-SS.
 

________________________________________________

Sitemap

________________________________________________

Web design and maintenance by Fish Eagle Productions, Springbok. Call Christo Conradie, +27826426356 (RSA) / +264817566444 (Namibia), or e-mail:  christo@fisheagleproductions.co.za

www.fisheagleproductions.co.za

 


Airport Information
meteo-mobile